Time;durP1;ratioP1;P1;durP2;ratioP2;P2;SDS_P1;SDS_P2;PMS_P1;PMS_P2;Temp;Humidity;BMP_temperature;BMP_pressure;BME280_temperature;BME280_humidity;BME280_pressure;Samples;Min_cycle;Max_cycle;Signal;HPM_P1;HPM_P2
2022/02/06 00:05:41;;;;;;;106.47;37.50;;;;;;;0.91;79.59;93146.69;4981166;28;20403;-89
2022/02/06 00:08:27;;;;;;;;;;;;;;;;;;;;;
2022/02/06 00:15:06;;;;;;;84.43;30.52;;;;;;;0.37;79.52;93069.00;5031824;28;20040;-91
2022/02/06 00:18:13;;;;;;;79.63;30.00;;;;;;;0.56;78.19;93093.06;5057185;28;20044;-90
2022/02/06 00:21:16;;;;;;;;;;;;;;;;;;;;;
2022/02/06 00:24:24;;;;;;;60.78;24.23;;;;;;;0.36;76.40;93069.19;5033575;28;20049;-89
2022/02/06 00:34:26;;;;;;;;;;;;;;;;;;;;;
2022/02/06 00:41:14;;;;;;;40.60;17.25;;;;;;;0.67;72.09;93117.31;5062955;28;20048;-89
2022/02/06 00:43:30;;;;;;;;;;;;;;;;;;;;;
2022/02/06 00:50:00;;;;;;;40.75;17.63;;;;;;;0.44;70.72;93079.25;5051167;28;20059;-90
2022/02/06 00:56:03;;;;;;;37.67;15.23;;;;;;;0.30;68.66;93060.53;4998810;28;20048;-90
2022/02/06 00:58:47;;;;;;;36.67;14.50;;;;;;;0.36;68.67;93088.03;5021624;28;20037;-89
2022/02/06 01:01:41;;;;;;;44.40;14.00;;;;;;;0.09;67.60;93055.69;5020015;28;20579;-90
2022/02/06 01:04:28;;;;;;;38.05;13.60;;;;;;;0.00;65.79;93050.03;5032436;28;20401;-89
2022/02/06 01:07:36;;;;;;;34.28;12.57;;;;;;;0.12;64.75;93065.59;5030844;28;20036;-89
2022/02/06 01:10:06;;;;;;;33.53;12.07;;;;;;;0.26;63.96;93098.00;5053594;28;20053;-91
2022/02/06 01:13:32;;;;;;;33.30;12.55;;;;;;;0.44;64.12;93119.69;5039366;28;20086;-89
2022/02/06 01:23:22;;;;;;;27.50;10.05;;;;;;;-0.08;62.97;93058.00;5032543;28;20052;-90
2022/02/06 01:29:29;;;;;;;;;;;;;;;;;;;;;
2022/02/06 01:32:40;;;;;;;;;;;;;;;;;;;;;
2022/02/06 01:35:37;;;;;;;41.92;16.95;;;;;;;0.37;67.29;93122.31;5056541;28;20033;-90
2022/02/06 01:39:09;;;;;;;57.40;21.00;;;;;;;-0.04;68.94;93054.03;5043068;28;20032;-90
2022/02/06 01:42:00;;;;;;;67.03;22.48;;;;;;;-0.11;71.07;93030.09;5021186;28;20136;-89
2022/02/06 01:45:08;;;;;;;;;;;;;;;;;;;;;
2022/02/06 02:10:24;;;;;;;;;;;;;;;;;;;;;
2022/02/06 02:16:20;;;;;;;14.57;5.47;;;;;;;0.21;59.04;93105.56;5047665;28;20063;-89
2022/02/06 02:26:28;;;;;;;11.80;3.42;;;;;;;-0.17;57.21;93051.53;5035210;28;20037;-89
2022/02/06 02:48:47;;;;;;;7.30;2.97;;;;;;;-0.43;54.14;93001.75;5046250;28;20039;-89
2022/02/06 02:51:56;;;;;;;13.77;5.07;;;;;;;0.01;55.18;93068.84;5035669;28;20041;-89
2022/02/06 03:01:53;;;;;;;6.97;2.10;;;;;;;-0.60;52.03;92992.97;5053269;28;20060;-90
2022/02/06 03:08:04;;;;;;;;;;;;;;;;;;;;;
2022/02/06 03:11:08;;;;;;;2.60;1.42;;;;;;;-0.65;50.42;92988.44;5054294;28;20047;-90
2022/02/06 03:16:42;;;;;;;5.63;2.60;;;;;;;-0.41;50.63;93038.34;5038589;28;20107;-89
2022/02/06 03:19:52;;;;;;;;;;;;;;;;;;;;;
2022/02/06 03:23:05;;;;;;;5.47;2.25;;;;;;;-0.32;51.12;93044.84;5008195;28;20071;-88
2022/02/06 03:26:01;;;;;;;7.78;3.20;;;;;;;-0.64;52.28;92990.78;5002768;28;20042;-89
2022/02/06 03:28:41;;;;;;;;;;;;;;;;;;;;;
2022/02/06 03:31:16;;;;;;;8.65;3.28;;;;;;;-0.59;52.60;92997.09;5000661;28;20053;-89
2022/02/06 03:33:52;;;;;;;11.63;3.72;;;;;;;-0.44;53.32;93015.63;5031904;28;20037;-89
2022/02/06 03:36:49;;;;;;;9.82;3.70;;;;;;;-0.32;53.81;93028.63;5027368;28;20037;-90
2022/02/06 03:39:51;;;;;;;7.05;3.08;;;;;;;-0.80;53.86;92960.41;5043440;28;20036;-89
2022/02/06 03:42:45;;;;;;;6.88;2.70;;;;;;;-0.79;52.86;92961.97;5030150;28;20102;-90
2022/02/06 03:45:21;;;;;;;5.32;2.40;;;;;;;-0.46;52.99;93007.31;5042438;28;20127;-89
2022/02/06 03:48:32;;;;;;;;;;;;;;;;;;;;;
2022/02/06 03:51:44;;;;;;;5.10;2.10;;;;;;;-0.76;51.74;92961.59;5018725;28;20038;-88
2022/02/06 03:54:29;;;;;;;3.42;1.50;;;;;;;-0.65;51.77;92976.38;5036633;28;20104;-88
2022/02/06 03:57:54;;;;;;;4.93;1.90;;;;;;;-0.39;51.70;93022.72;5038807;28;20502;-88
2022/02/06 04:00:36;;;;;;;11.80;4.63;;;;;;;-0.90;52.17;92942.06;5057128;28;20048;-89
2022/02/06 04:03:24;;;;;;;18.40;7.53;;;;;;;-0.55;54.01;92988.00;5041682;28;20498;-89
2022/02/06 04:06:29;;;;;;;10.43;4.82;;;;;;;-0.86;54.23;92940.66;5026073;28;20053;-90
2022/02/06 04:09:40;;;;;;;10.32;3.33;;;;;;;-0.78;53.75;92952.50;5002730;28;20037;-89
2022/02/06 04:12:48;;;;;;;4.80;2.40;;;;;;;-0.90;52.32;92940.28;5034968;28;20037;-88
2022/02/06 04:15:40;;;;;;;7.55;2.63;;;;;;;-0.89;51.22;92939.28;5000161;28;20161;-88
2022/02/06 04:19:00;;;;;;;;;;;;;;;;;;;;;
2022/02/06 04:21:53;;;;;;;4.50;2.05;;;;;;;-0.94;50.44;92933.19;5037572;28;20486;-89
2022/02/06 04:24:34;;;;;;;4.97;2.10;;;;;;;-0.92;50.22;92936.34;5036725;28;20037;-90
2022/02/06 04:27:30;;;;;;;;;;;;;;;;;;;;;
2022/02/06 04:30:20;;;;;;;;;;;;;;;;;;;;;
2022/02/06 04:33:27;;;;;;;14.63;4.70;;;;;;;-0.97;52.36;92931.78;5039325;28;20371;-89
2022/02/06 04:36:00;;;;;;;12.23;5.45;;;;;;;-0.46;53.41;93002.19;5022840;28;20072;-89
2022/02/06 04:39:18;;;;;;;14.30;5.10;;;;;;;-0.89;54.55;92931.56;5046002;28;20045;-89
2022/02/06 04:49:56;;;;;;;12.38;3.90;;;;;;;-1.04;54.43;92918.19;5033917;28;20457;-89
2022/02/06 04:56:00;;;;;;;9.27;4.22;;;;;;;-0.52;54.64;92983.22;5043165;28;20049;-89
2022/02/06 05:23:57;;;;;;;9.10;3.72;;;;;;;-0.98;53.98;92911.47;5040846;28;20065;-88
2022/02/06 05:27:12;;;;;;;7.95;3.83;;;;;;;-0.53;54.20;92980.84;5035790;28;20122;-88
2022/02/06 05:30:12;;;;;;;10.38;4.47;;;;;;;-0.95;53.86;92918.75;4996046;28;20038;-90
2022/02/06 05:35:48;;;;;;;14.82;5.10;;;;;;;-0.96;54.24;92914.63;5017056;28;20111;-89
2022/02/06 05:39:03;;;;;;;16.02;4.45;;;;;;;-0.84;54.62;92924.03;5033688;28;20041;-89
2022/02/06 05:41:57;;;;;;;;;;;;;;;;;;;;;
2022/02/06 05:44:50;;;;;;;9.55;3.90;;;;;;;-0.63;53.75;92966.66;5074273;28;20048;-89
2022/02/06 05:48:13;;;;;;;9.68;4.05;;;;;;;-0.81;54.19;92928.00;5045300;28;20037;-89
2022/02/06 05:50:56;;;;;;;11.35;4.30;;;;;;;-0.88;53.76;92912.59;4997781;28;20041;-89
2022/02/06 05:54:05;;;;;;;9.18;3.92;;;;;;;-0.82;53.32;92921.25;5046336;28;20043;-90
2022/02/06 05:56:59;;;;;;;;;;;;;;;;;;;;;
2022/02/06 05:59:48;;;;;;;;;;;;;;;;;;;;;
2022/02/06 06:02:45;;;;;;;11.75;3.22;;;;;;;-0.85;53.48;92921.69;5039310;28;20540;-90
2022/02/06 06:05:30;;;;;;;;;;;;;;;;;;;;;
2022/02/06 06:08:26;;;;;;;;;;;;;;;;;;;;;
2022/02/06 06:11:25;;;;;;;4.63;2.17;;;;;;;-0.65;51.40;92966.06;5016000;28;20037;-89
2022/02/06 06:14:06;;;;;;;;;;;;;;;;;;;;;
2022/02/06 06:16:46;;;;;;;3.75;1.73;;;;;;;-0.79;50.71;92931.13;5007067;28;20038;-86
2022/02/06 06:19:24;;;;;;;4.85;2.20;;;;;;;-0.40;50.50;92996.22;5031832;28;20037;-86
2022/02/06 06:22:07;;;;;;;;;;;;;;;;;;;;;
2022/02/06 06:24:40;;;;;;;2.83;1.50;;;;;;;-0.47;50.38;92972.31;5017316;28;20128;-86
2022/02/06 06:27:39;;;;;;;;;;;;;;;;;;;;;
2022/02/06 06:30:11;;;;;;;4.93;1.83;;;;;;;-0.55;49.27;92946.84;5024270;28;20132;-86
2022/02/06 06:32:56;;;;;;;7.32;2.13;;;;;;;-0.67;49.46;92921.78;5037465;28;20056;-86
2022/02/06 06:35:29;;;;;;;4.00;2.05;;;;;;;-0.58;49.32;92927.47;5035368;28;20056;-86
2022/02/06 06:38:15;;;;;;;5.05;2.25;;;;;;;-0.46;49.31;92945.59;5037459;28;20025;-87
2022/02/06 06:40:54;;;;;;;5.45;2.20;;;;;;;-0.31;49.13;92953.81;5045134;28;20068;-86
2022/02/06 06:43:24;;;;;;;6.15;2.78;;;;;;;-0.47;49.60;92920.88;5053307;28;20032;-86
2022/02/06 06:46:16;;;;;;;5.20;2.50;;;;;;;-0.07;50.01;92969.47;5043111;28;20044;-86
2022/02/06 06:49:02;;;;;;;;;;;;;;;;;;;;;
2022/02/06 06:51:33;;;;;;;5.85;2.17;;;;;;;-0.25;49.13;92924.69;5020211;28;20065;-86
2022/02/06 06:54:11;;;;;;;4.78;2.17;;;;;;;0.07;48.48;92959.88;5007637;28;20773;-86
2022/02/06 06:56:54;;;;;;;6.90;2.15;;;;;;;0.74;47.08;92918.84;5034882;28;20500;-86
2022/02/06 07:05:08;;;;;;;4.03;1.90;;;;;;;5.69;38.70;92912.91;5012464;28;20491;-88
2022/02/06 07:07:46;;;;;;;5.72;2.00;;;;;;;6.52;37.20;92904.78;5013678;28;20397;-88
2022/02/06 07:10:27;;;;;;;;;;;;;;;;;;;;;
2022/02/06 07:13:07;;;;;;;7.13;2.70;;;;;;;7.13;34.64;92900.94;5011354;28;20034;-86
2022/02/06 07:15:41;;;;;;;10.30;3.58;;;;;;;6.70;36.00;92910.59;5027479;28;20128;-86
2022/02/06 07:18:12;;;;;;;9.23;3.85;;;;;;;6.16;36.86;92953.13;5024331;28;20044;-86
2022/02/06 07:20:48;;;;;;;12.93;4.78;;;;;;;4.94;38.85;92904.03;4998030;28;20049;-87
2022/02/06 07:23:26;;;;;;;18.85;6.47;;;;;;;4.24;41.24;92911.38;5006034;28;21301;-87
2022/02/06 07:26:00;;;;;;;17.13;6.60;;;;;;;3.72;43.02;92911.59;5044460;28;20064;-86
2022/02/06 07:28:30;;;;;;;22.85;7.15;;;;;;;3.59;44.39;92954.09;5030306;28;20033;-87
2022/02/06 07:30:58;;;;;;;19.75;7.78;;;;;;;3.04;44.91;92905.41;5025555;28;20041;-86
2022/02/06 07:33:24;;;;;;;26.98;8.40;;;;;;;3.00;46.24;92923.22;5016405;28;20038;-86
2022/02/06 07:35:52;;;;;;;20.45;7.03;;;;;;;2.74;47.08;92915.94;5032912;28;20502;-86
2022/02/06 07:38:20;;;;;;;16.77;5.75;;;;;;;2.65;45.42;92920.69;5029035;28;20060;-86
2022/02/06 07:40:47;;;;;;;13.63;5.85;;;;;;;2.49;45.34;92901.47;5010556;28;20136;-86
2022/02/06 07:43:28;;;;;;;15.52;5.78;;;;;;;2.67;46.52;92945.28;5015903;28;20103;-85
2022/02/06 07:46:21;;;;;;;15.05;5.55;;;;;;;2.50;46.31;92926.31;5037056;28;20029;-86
2022/02/06 07:49:01;;;;;;;18.33;6.07;;;;;;;2.75;47.36;92969.22;5033520;28;20460;-85
2022/02/06 07:51:39;;;;;;;17.70;5.95;;;;;;;2.40;47.88;92929.44;5001468;28;20045;-88
2022/02/06 07:54:15;;;;;;;13.30;5.70;;;;;;;2.49;48.33;92950.56;5036486;28;20029;-86
2022/02/06 07:56:43;;;;;;;16.13;6.45;;;;;;;2.37;48.92;92939.47;5021982;28;20474;-86
2022/02/06 07:59:20;;;;;;;21.15;6.45;;;;;;;2.22;49.13;92917.44;5006387;28;20039;-86
2022/02/06 08:01:51;;;;;;;14.70;5.18;;;;;;;2.41;49.08;92948.31;5015179;28;20046;-85
2022/02/06 08:04:29;;;;;;;13.07;4.63;;;;;;;2.42;48.87;92947.31;5032244;28;20057;-85
2022/02/06 08:06:57;;;;;;;13.57;4.25;;;;;;;2.19;48.04;92909.34;5013436;28;20153;-85
2022/02/06 08:09:43;;;;;;;13.25;4.75;;;;;;;2.16;47.38;92889.94;5035775;28;20048;-86
2022/02/06 08:12:17;;;;;;;8.80;3.58;;;;;;;2.40;47.98;92929.44;5016825;28;20395;-85
2022/02/06 08:14:54;;;;;;;13.38;4.55;;;;;;;2.37;48.22;92917.00;5048543;28;20104;-84
2022/02/06 08:17:26;;;;;;;10.48;3.50;;;;;;;2.49;47.87;92932.50;4992775;28;20038;-84
2022/02/06 08:19:53;;;;;;;7.93;3.30;;;;;;;2.61;47.64;92940.22;5046022;28;20052;-85
2022/02/06 08:22:20;;;;;;;10.15;3.78;;;;;;;2.81;47.73;92958.75;5033700;28;20068;-85
2022/02/06 08:24:47;;;;;;;8.05;3.15;;;;;;;2.71;47.31;92940.47;5026221;28;20033;-84
2022/02/06 08:27:14;;;;;;;8.52;3.45;;;;;;;2.81;46.95;92937.28;5051263;28;20061;-87
2022/02/06 08:29:49;;;;;;;8.40;3.35;;;;;;;2.59;47.01;92899.13;5015306;28;20037;-85
2022/02/06 08:32:19;;;;;;;9.45;3.65;;;;;;;2.70;46.85;92906.06;5050979;28;20067;-85
2022/02/06 08:34:49;;;;;;;9.57;3.42;;;;;;;3.07;45.83;92931.63;5030705;28;20045;-85
2022/02/06 08:37:22;;;;;;;9.85;3.35;;;;;;;3.17;45.32;92919.91;5021833;28;20045;-84
2022/02/06 08:39:49;;;;;;;6.72;3.05;;;;;;;3.44;45.44;92952.00;5036423;28;20371;-85
2022/02/06 08:42:36;;;;;;;8.25;3.22;;;;;;;3.28;45.76;92926.84;5037278;28;20485;-85
2022/02/06 08:45:00;;;;;;;8.38;2.67;;;;;;;3.02;46.05;92887.56;5033088;28;20049;-86
2022/02/06 08:47:26;;;;;;;10.02;3.45;;;;;;;3.07;45.98;92892.06;5034364;28;20056;-87
2022/02/06 08:49:55;;;;;;;6.45;2.58;;;;;;;3.65;46.48;92936.84;5032160;28;20124;-86
2022/02/06 08:52:21;;;;;;;10.32;3.13;;;;;;;3.85;46.52;92903.53;5034949;28;20025;-85
2022/02/06 08:54:46;;;;;;;5.68;2.58;;;;;;;4.75;45.36;92916.50;5031720;28;20035;-85
2022/02/06 08:57:21;;;;;;;7.15;2.85;;;;;;;5.47;43.68;92945.91;5031914;28;20489;-86
2022/02/06 08:59:49;;;;;;;8.00;3.53;;;;;;;6.15;43.38;92947.16;5031742;28;20034;-86
2022/02/06 09:02:15;;;;;;;14.25;3.83;;;;;;;6.64;40.99;92941.81;5036133;28;20090;-86
2022/02/06 09:04:40;;;;;;;7.63;3.40;;;;;;;7.23;37.94;92940.81;5014648;28;20037;-88
2022/02/06 09:07:07;;;;;;;7.80;3.13;;;;;;;8.39;33.70;92940.53;5003775;28;20091;-87
2022/02/06 09:09:34;;;;;;;9.00;2.97;;;;;;;10.03;29.36;92934.88;5039814;28;20068;-86
2022/02/06 09:12:00;;;;;;;12.85;4.65;;;;;;;10.17;31.56;92935.81;5032528;28;20061;-87
2022/02/06 09:14:27;;;;;;;12.07;4.38;;;;;;;10.09;31.15;92928.56;5034421;28;20033;-87
2022/02/06 09:16:55;;;;;;;11.13;4.07;;;;;;;10.19;30.46;92933.72;5015978;28;20081;-87
2022/02/06 09:19:21;;;;;;;10.68;4.07;;;;;;;9.40;30.62;92929.44;5017686;28;20025;-87
2022/02/06 09:21:47;;;;;;;11.52;4.32;;;;;;;7.91;33.36;92932.16;5032485;28;20119;-87
2022/02/06 09:24:13;;;;;;;15.60;5.35;;;;;;;8.01;35.08;92926.97;5051895;28;20080;-87
2022/02/06 09:26:40;;;;;;;18.08;5.45;;;;;;;8.60;35.17;92928.31;5035756;28;20041;-88
2022/02/06 09:29:07;;;;;;;16.88;5.15;;;;;;;9.44;32.70;92927.84;5052305;28;20033;-86
2022/02/06 09:31:33;;;;;;;12.18;5.07;;;;;;;9.73;31.57;92920.91;5036807;28;20090;-88
2022/02/06 09:36:25;;;;;;;12.80;5.18;;;;;;;11.27;29.25;92909.22;5035964;28;20475;-87
2022/02/06 09:38:51;;;;;;;11.10;4.63;;;;;;;12.35;28.32;92920.97;5022134;28;20040;-86
2022/02/06 09:41:19;;;;;;;11.02;4.45;;;;;;;13.26;25.79;92923.09;5016320;28;20053;-87
2022/02/06 09:43:45;;;;;;;13.73;5.53;;;;;;;12.75;27.39;92926.63;5044866;28;20552;-87
2022/02/06 09:46:13;;;;;;;8.40;3.70;;;;;;;10.90;29.91;92923.75;5038207;28;20037;-87
2022/02/06 09:48:39;;;;;;;13.90;5.45;;;;;;;9.25;33.69;92899.69;5032031;28;20044;-86
2022/02/06 09:51:06;;;;;;;17.52;7.25;;;;;;;9.10;35.20;92921.44;5015174;28;20585;-86
2022/02/06 09:53:32;;;;;;;17.52;6.47;;;;;;;8.90;35.62;92914.44;5036223;28;20041;-86
2022/02/06 09:56:08;;;;;;;15.30;5.63;;;;;;;9.75;33.38;92925.88;5032875;28;20115;-87
2022/02/06 10:01:07;;;;;;;14.75;5.88;;;;;;;11.28;29.85;92900.31;5052697;28;20473;-85
2022/02/06 10:03:49;;;;;;;9.50;4.88;;;;;;;11.07;28.97;92919.91;5021496;28;20059;-86
2022/02/06 10:06:23;;;;;;;16.80;6.88;;;;;;;10.44;31.52;92923.38;5054407;28;20047;-86
2022/02/06 10:08:58;;;;;;;13.20;4.75;;;;;;;10.59;29.64;92910.94;5045675;28;20132;-86
2022/02/06 10:11:29;;;;;;;16.77;4.95;;;;;;;10.49;28.93;92931.97;5034965;28;20200;-88
2022/02/06 10:13:54;;;;;;;10.18;3.85;;;;;;;10.18;28.61;92903.38;5030922;28;20063;-85
2022/02/06 10:16:21;;;;;;;16.08;4.60;;;;;;;9.65;31.15;92923.31;5003350;28;20463;-85
2022/02/06 10:18:46;;;;;;;12.70;5.45;;;;;;;8.97;31.90;92911.53;5013909;28;20128;-85
2022/02/06 10:21:16;;;;;;;12.45;4.78;;;;;;;8.84;30.23;92909.50;5013783;28;20030;-85
2022/02/06 10:23:58;;;;;;;8.82;3.72;;;;;;;8.92;30.04;92907.13;5025771;28;20049;-85
2022/02/06 10:26:31;;;;;;;11.15;3.92;;;;;;;8.93;29.29;92908.66;5018999;28;20029;-85
2022/02/06 10:32:02;;;;;;;18.08;6.15;;;;;;;8.87;31.55;92890.66;5011094;28;20734;-85
2022/02/06 10:34:30;;;;;;;10.27;4.55;;;;;;;8.56;32.43;92888.13;5039389;28;20068;-86
2022/02/06 10:37:13;;;;;;;13.60;5.75;;;;;;;8.30;33.64;92905.59;5043471;28;20456;-86
2022/02/06 10:39:50;;;;;;;7.72;3.75;;;;;;;8.61;29.38;92888.13;5040008;28;20051;-85
2022/02/06 10:42:21;;;;;;;6.20;3.20;;;;;;;9.01;29.25;92883.09;5047617;28;20048;-85
2022/02/06 10:44:48;;;;;;;11.07;4.25;;;;;;;9.69;29.12;92872.84;5020215;28;20037;-86
2022/02/06 10:47:14;;;;;;;12.48;5.65;;;;;;;9.42;31.75;92872.47;5033274;28;20134;-85
2022/02/06 10:49:39;;;;;;;13.93;6.20;;;;;;;9.58;31.73;92873.94;4998833;28;20107;-84
2022/02/06 10:52:05;;;;;;;14.30;5.60;;;;;;;9.36;32.32;92879.53;5030193;28;20057;-84
2022/02/06 10:54:30;;;;;;;15.65;6.43;;;;;;;9.96;30.90;92888.09;5019098;28;20040;-85
2022/02/06 10:57:11;;;;;;;14.60;5.00;;;;;;;9.46;30.95;92881.34;5032223;28;20102;-86
2022/02/06 10:59:43;;;;;;;14.07;5.03;;;;;;;9.52;32.33;92872.41;5023178;28;20038;-86
2022/02/06 11:02:26;;;;;;;13.65;5.68;;;;;;;8.78;33.71;92869.56;5011608;28;20059;-85
2022/02/06 11:05:06;;;;;;;;;;;;;;;9.31;32.63;92872.50;4998766;28;20069;-87
2022/02/06 11:07:32;;;;;;;16.10;5.80;;;;;;;8.69;34.61;92851.06;5010319;28;19916;-85
2022/02/06 11:10:07;;;;;;;15.18;6.30;;;;;;;8.42;34.62;92856.59;4997029;28;20386;-86
2022/02/06 11:12:33;;;;;;;20.67;6.82;;;;;;;8.75;35.15;92870.84;5050261;28;20123;-85
2022/02/06 11:15:02;;;;;;;23.67;8.23;;;;;;;8.99;34.75;92853.84;5020615;28;20135;-85
2022/02/06 11:17:30;;;;;;;17.40;5.65;;;;;;;8.39;35.92;92838.03;5047478;28;20136;-86
2022/02/06 11:20:08;;;;;;;21.33;8.07;;;;;;;8.89;35.24;92846.81;5028775;28;20072;-85
2022/02/06 11:22:36;;;;;;;20.90;6.50;;;;;;;9.02;35.61;92842.84;5032499;28;20037;-85
2022/02/06 11:25:05;;;;;;;24.83;8.75;;;;;;;8.95;35.44;92817.03;5028504;28;20105;-87
2022/02/06 11:27:33;;;;;;;19.25;7.10;;;;;;;8.95;35.79;92827.47;5015567;28;20096;-85
2022/02/06 11:29:58;;;;;;;19.25;7.85;;;;;;;8.69;36.16;92798.06;5013593;28;20041;-86
2022/02/06 11:32:27;;;;;;;19.67;8.77;;;;;;;8.51;36.85;92809.84;5013511;28;20056;-85
2022/02/06 11:34:55;;;;;;;18.10;8.05;;;;;;;8.44;37.36;92812.72;5014330;28;20071;-88
2022/02/06 11:45:59;;;;;;;22.40;9.30;;;;;;;9.38;36.38;92773.69;5026325;28;20037;-85
2022/02/06 11:48:29;;;;;;;16.92;6.10;;;;;;;8.64;35.76;92774.59;5010733;28;20129;-86
2022/02/06 11:50:58;;;;;;;25.08;9.23;;;;;;;8.51;35.38;92748.03;5048185;28;20059;-85
2022/02/06 11:53:25;;;;;;;20.98;8.75;;;;;;;8.39;35.93;92721.41;5011692;28;20061;-85
2022/02/06 11:55:52;;;;;;;16.08;6.78;;;;;;;8.44;34.93;92760.56;5030341;28;20030;-86
2022/02/06 11:58:24;;;;;;;22.77;8.98;;;;;;;8.93;35.43;92752.03;5011448;28;20029;-87
2022/02/06 12:01:12;;;;;;;17.92;6.63;;;;;;;9.32;33.69;92753.91;5026332;28;20482;-86
2022/02/06 12:03:56;;;;;;;26.15;7.88;;;;;;;9.79;33.60;92747.28;5004568;28;20053;-85
2022/02/06 12:06:47;;;;;;;14.95;6.72;;;;;;;9.71;33.61;92755.72;5006603;28;20036;-86
2022/02/06 12:09:22;;;;;;;20.58;7.57;;;;;;;9.06;35.75;92749.88;5024955;28;20040;-86
2022/02/06 12:12:03;;;;;;;22.10;8.27;;;;;;;9.04;34.34;92749.38;5033110;28;20041;-88
2022/02/06 12:14:33;;;;;;;19.38;6.43;;;;;;;8.48;34.83;92755.59;5011498;28;20033;-86
2022/02/06 12:17:14;;;;;;;19.13;6.85;;;;;;;8.48;35.27;92760.81;5009183;28;20499;-87
2022/02/06 12:19:40;;;;;;;23.05;7.88;;;;;;;8.26;36.18;92733.22;5027942;28;20379;-86
2022/02/06 12:22:31;;;;;;;18.20;7.82;;;;;;;8.32;37.55;92767.88;4992524;28;20103;-86
2022/02/06 12:25:23;;;;;;;23.15;8.80;;;;;;;8.24;36.69;92758.78;5026908;28;20025;-85
2022/02/06 12:28:20;;;;;;;21.50;8.07;;;;;;;8.07;36.23;92727.78;5037390;28;20059;-85
2022/02/06 12:30:47;;;;;;;24.05;8.20;;;;;;;7.91;35.74;92718.44;5024395;28;20040;-85
2022/02/06 12:33:22;;;;;;;19.67;7.55;;;;;;;7.96;36.95;92733.28;4997599;28;20166;-85
2022/02/06 12:38:32;;;;;;;24.52;8.60;;;;;;;7.93;37.77;92724.94;5028097;28;20068;-88
2022/02/06 12:41:00;;;;;;;17.75;7.63;;;;;;;8.11;37.66;92723.59;5009785;28;20448;-85
2022/02/06 12:43:32;;;;;;;25.13;9.13;;;;;;;8.64;37.62;92723.19;5028254;28;20037;-87
2022/02/06 12:45:59;;;;;;;27.42;9.70;;;;;;;8.63;36.95;92705.19;5004941;28;20038;-84
2022/02/06 12:48:24;;;;;;;29.75;11.15;;;;;;;8.72;37.39;92714.78;5027239;28;20474;-85
2022/02/06 12:50:52;;;;;;;27.55;11.55;;;;;;;7.83;39.63;92708.53;5011262;28;20046;-85
2022/02/06 12:53:17;;;;;;;34.72;12.45;;;;;;;7.76;40.92;92710.63;4975880;28;20387;-86
2022/02/06 12:55:48;;;;;;;31.00;12.13;;;;;;;7.13;41.11;92690.06;5009999;28;20095;-85
2022/02/06 12:58:17;;;;;;;32.25;12.45;;;;;;;7.46;41.46;92714.81;5024261;28;20033;-84
2022/02/06 13:00:49;;;;;;;37.33;13.82;;;;;;;7.29;41.45;92700.22;5045101;28;20474;-84
2022/02/06 13:03:38;;;;;;;52.78;16.90;;;;;;;7.27;42.38;92712.72;5010990;28;20537;-84
2022/02/06 13:06:07;;;;;;;42.22;15.05;;;;;;;7.18;42.71;92703.06;5045355;28;20501;-84
2022/02/06 13:08:36;;;;;;;33.22;12.18;;;;;;;7.02;42.53;92702.28;5029315;28;20040;-85
2022/02/06 13:11:08;;;;;;;41.58;14.48;;;;;;;7.28;41.78;92688.25;5050403;28;20245;-84
2022/02/06 13:16:39;;;;;;;47.90;15.65;;;;;;;7.72;41.26;92687.69;5029995;28;20475;-85
2022/02/06 13:21:51;;;;;;;41.53;13.82;;;;;;;7.24;41.45;92671.56;5043000;28;20556;-84
2022/02/06 13:24:35;;;;;;;23.05;9.55;;;;;;;7.10;39.89;92678.34;5015430;28;20378;-86
2022/02/06 13:30:08;;;;;;;18.27;7.90;;;;;;;7.13;39.38;92664.03;5016451;28;20068;-86
2022/02/06 13:37:44;;;;;;;41.90;11.98;;;;;;;7.22;40.93;92663.22;5006692;28;20071;-84
2022/02/06 13:40:15;;;;;;;39.60;14.85;;;;;;;6.79;42.12;92660.09;5011511;28;20045;-85
2022/02/06 13:43:05;;;;;;;38.55;12.82;;;;;;;7.04;42.13;92661.16;5031772;28;20052;-84
2022/02/06 13:45:34;;;;;;;36.28;14.50;;;;;;;7.03;41.17;92667.41;5029109;28;20075;-85
2022/02/06 13:48:01;;;;;;;32.15;11.90;;;;;;;6.97;41.47;92661.41;5029724;28;20124;-85
2022/02/06 13:50:28;;;;;;;38.75;13.05;;;;;;;6.78;41.93;92660.34;5015741;28;20060;-84
2022/02/06 13:53:06;;;;;;;37.78;13.23;;;;;;;6.75;42.80;92633.00;5051173;28;20025;-85
2022/02/06 13:55:32;;;;;;;35.75;11.60;;;;;;;6.54;43.04;92654.84;5037888;28;20087;-85
2022/02/06 13:57:58;;;;;;;38.85;13.55;;;;;;;6.40;44.04;92657.91;5012111;28;20631;-84
2022/02/06 14:00:23;;;;;;;37.78;12.68;;;;;;;6.46;43.46;92654.31;5030656;28;20037;-85
2022/02/06 14:02:56;;;;;;;27.45;11.57;;;;;;;6.41;43.85;92661.28;4996941;28;20050;-85
2022/02/06 14:05:25;;;;;;;41.33;15.90;;;;;;;6.23;44.80;92657.34;5030073;28;20042;-83
2022/02/06 14:08:02;;;;;;;29.52;13.05;;;;;;;6.21;44.85;92647.22;5012666;28;20041;-84
2022/02/06 14:10:39;;;;;;;39.38;14.77;;;;;;;6.30;44.73;92646.69;5031852;28;20068;-85
2022/02/06 14:13:05;;;;;;;40.88;15.80;;;;;;;6.39;44.68;92656.34;5030703;28;20814;-85
2022/02/06 14:15:30;;;;;;;37.50;14.35;;;;;;;6.68;44.61;92637.69;5016215;28;20080;-85
2022/02/06 14:18:07;;;;;;;42.58;16.00;;;;;;;7.05;43.69;92652.31;5029980;28;20037;-84
2022/02/06 14:20:33;;;;;;;46.25;16.67;;;;;;;7.20;43.21;92652.28;5032086;28;20037;-85
2022/02/06 14:23:03;;;;;;;41.95;15.38;;;;;;;7.36;42.86;92632.25;5030130;28;20040;-85
2022/02/06 14:25:39;;;;;;;39.03;13.70;;;;;;;6.90;44.95;92631.47;5032270;28;20107;-84
2022/02/06 14:28:26;;;;;;;43.75;16.85;;;;;;;6.81;45.82;92629.38;5014503;28;20040;-85
2022/02/06 14:30:55;;;;;;;36.63;14.95;;;;;;;6.79;45.77;92630.69;5040618;28;20058;-88
2022/02/06 14:33:26;;;;;;;61.25;24.40;;;;;;;6.68;46.61;92630.66;5032405;28;20036;-84
2022/02/06 14:36:07;;;;;;;46.45;15.07;;;;;;;6.60;46.49;92630.41;5029115;28;20046;-84
2022/02/06 14:43:59;;;;;;;46.47;18.17;;;;;;;6.34;47.71;92606.16;5028729;28;20544;-85
2022/02/06 14:46:30;;;;;;;39.60;15.68;;;;;;;6.27;46.81;92611.59;5028267;28;20041;-86
2022/02/06 14:48:57;;;;;;;41.42;15.50;;;;;;;6.10;47.78;92603.22;5029922;28;20049;-84
2022/02/06 14:51:25;;;;;;;51.92;19.05;;;;;;;6.13;48.42;92605.31;5014216;28;20053;-85
2022/02/06 14:53:58;;;;;;;39.60;14.93;;;;;;;5.96;48.65;92590.69;5012252;28;20091;-85
2022/02/06 14:56:26;;;;;;;45.88;17.38;;;;;;;5.94;49.73;92590.16;5021291;28;20029;-84
2022/02/06 14:58:51;;;;;;;41.65;16.23;;;;;;;5.84;49.29;92593.50;5064004;28;20025;-86
2022/02/06 15:01:17;;;;;;;60.25;16.65;;;;;;;5.78;50.41;92584.09;5030365;28;20044;-85
2022/02/06 15:03:42;;;;;;;50.63;20.38;;;;;;;5.70;50.40;92587.22;5032311;28;20045;-85
2022/02/06 15:06:08;;;;;;;60.13;23.63;;;;;;;5.44;50.66;92555.13;5019065;28;20498;-84
2022/02/06 15:08:34;;;;;;;48.13;19.08;;;;;;;5.54;51.06;92570.78;5048121;28;20036;-84
2022/02/06 15:10:59;;;;;;;45.95;17.60;;;;;;;5.57;50.95;92566.88;5013073;28;20482;-85
2022/02/06 15:13:30;;;;;;;46.75;18.27;;;;;;;5.43;51.08;92541.38;5025114;28;20044;-84
2022/02/06 15:16:01;;;;;;;64.55;21.95;;;;;;;5.64;52.19;92568.22;5012352;28;20071;-85
2022/02/06 15:18:38;;;;;;;68.72;25.30;;;;;;;5.63;53.27;92576.28;5031947;28;20042;-85
2022/02/06 15:21:06;;;;;;;73.40;26.77;;;;;;;5.66;54.67;92575.75;5008155;28;20030;-86
2022/02/06 15:23:32;;;;;;;63.22;24.88;;;;;;;5.67;55.47;92581.72;5032483;28;20065;-84
2022/02/06 15:25:57;;;;;;;81.60;29.55;;;;;;;5.70;54.76;92581.22;5008455;28;20651;-84
2022/02/06 15:28:24;;;;;;;66.00;23.60;;;;;;;5.69;54.30;92574.47;5014418;28;20060;-86
2022/02/06 15:30:53;;;;;;;62.20;22.50;;;;;;;5.92;52.48;92566.25;5010797;28;20104;-85
2022/02/06 15:33:19;;;;;;;56.38;20.80;;;;;;;6.47;50.94;92574.47;5022829;28;20031;-86
2022/02/06 15:35:46;;;;;;;51.30;19.98;;;;;;;6.48;50.05;92526.59;5010839;28;20401;-84
2022/02/06 15:38:16;;;;;;;54.80;20.25;;;;;;;6.79;49.36;92550.81;5024815;28;20122;-86
2022/02/06 15:40:42;;;;;;;46.42;18.70;;;;;;;6.61;48.93;92520.09;5025376;28;20186;-85
2022/02/06 15:43:09;;;;;;;51.78;19.05;;;;;;;6.63;48.95;92498.00;5030145;28;20119;-86
2022/02/06 15:45:39;;;;;;;45.63;18.05;;;;;;;6.91;49.05;92532.31;5023354;28;20065;-85
2022/02/06 15:48:05;;;;;;;66.10;25.17;;;;;;;6.40;51.59;92469.94;4996362;28;20044;-86
2022/02/06 15:50:31;;;;;;;78.15;26.95;;;;;;;6.60;52.28;92497.75;5015900;28;20037;-86
2022/02/06 15:52:56;;;;;;;89.82;31.25;;;;;;;6.26;53.23;92485.25;5013918;28;20570;-85
2022/02/06 15:55:22;;;;;;;92.70;35.75;;;;;;;6.00;53.70;92463.66;5017896;28;20053;-85
2022/02/06 15:57:48;;;;;;;77.53;27.00;;;;;;;5.85;53.87;92464.38;5021701;28;20026;-85
2022/02/06 16:00:17;;;;;;;69.47;27.55;;;;;;;5.69;54.66;92460.19;5044618;28;20070;-85
2022/02/06 16:02:43;;;;;;;79.13;30.55;;;;;;;5.47;55.26;92447.38;5010671;28;20053;-84